Denver International Airport
KDEN : now visible

Airfield :











YOU CAN JOIN US ON...

 
LOGIN :

Register | Disclaimer

   EN    FR    IT 

 









Legend :    VFR   Marginal VFR   IFR   Intensive IFR   Very Intensive IFR
Visi :
Ceiling :
>= 8 km
>= 3000ft
5 to 8 km
1000 to 3000 ft
1500m to 5 km
500 to 1000 ft
800 to 1500m
200 to 500 ft
< 800m
< 200 ft
Symbols :   Thunderstorms  Fog  Heavy snow  Heavy precipitations  Wind > 20 kt







- Airport Elevation : 5431 ft
- IATA code : DEN


KDEN - Denver International

CURRENT METAR :
  • 210953Z 34008KT 1/2SM R35L/P6000FT -SN BR OVC003 M01/M01 A2967 RMK AO2 SFC VIS 2 1/2 SLP046 P0001 T10061006 $

EXPIRED METARs :
  • 210917Z 33009KT 1/2SM R35L/P6000FT -SN BR BKN004 OVC010 00/M01 A2968 RMK AO2 SFC VIS 1 1/4 P0000 T00001006 $
  • 210910Z 32009KT 1/2SM R35L/P6000FT -SN BR SCT004 OVC010 00/M01 A2968 RMK AO2 SFC VIS 1 1/2 P0000 T00001006 $
  • 210853Z 34007KT 1/2SM R35L/P6000FT -SN BR SCT003 OVC008 00/M01 A2969 RMK AO2 SFC VIS 1 1/2 SLP045 P0003 60011 T00001006 56010 $
  • 210830Z 36007KT 1/2SM R35L/P6000FT -SN BR SCT003 OVC008 00/M01 A2970 RMK AO2 SFC VIS 1 3/4 P0002 T00001006 $
  • 210753Z 34009KT 1/2SM R35L/P6000FT -SN BR BKN003 OVC016 00/M01 A2969 RMK AO2 SFC VIS 2 SLP053 P0003 T00001006 $

TAF KDEN
Valid from the 21 at 09:00 until the 22 at 12:00 UTC


210901Z 2109/2212 34008KT 1 1/2SM -SN BR OVC008
FM211600 35010KT 6SM -SHRA BR BKN008 OVC015
FM211900 35014G25KT P6SM BKN010 OVC020
FM220300 21007KT P6SM BKN022
KZDV FIR / North America



MET'MAP, your aeronautical weather chart ! - Copyright ORBIFLY December 2007 - Disclaimer

ORBIFLY MET'MAP TEAM :

Programming & Development : Alexandra Zaïnal
Concept & Development : Baudouin d'Aumeries
Co-Development & Prog : Marc-Olivier Méhu
Technical & hardware support : Manuel Goepfert

Contact : metmap@orbifly.com




SOURCES & CREDITS :

   NOAA       Earth
Advisory